sensor_id;sensor_type;location;lat;lon;timestamp;P1;durP1;ratioP1;P2;durP2;ratioP2
24157;SDS011;12316;50.904;4.200;2023-05-29T00:01:43;17.55;;;11.63;;
24157;SDS011;12316;50.904;4.200;2023-05-29T00:04:09;23.05;;;12.15;;
24157;SDS011;12316;50.904;4.200;2023-05-29T00:06:37;23.05;;;12.80;;
24157;SDS011;12316;50.904;4.200;2023-05-29T00:09:03;18.38;;;11.63;;
24157;SDS011;12316;50.904;4.200;2023-05-29T00:11:29;17.50;;;11.07;;
24157;SDS011;12316;50.904;4.200;2023-05-29T00:13:55;20.05;;;11.52;;
24157;SDS011;12316;50.904;4.200;2023-05-29T00:16:21;19.50;;;11.40;;
24157;SDS011;12316;50.904;4.200;2023-05-29T00:18:49;23.48;;;12.40;;
24157;SDS011;12316;50.904;4.200;2023-05-29T00:21:17;20.27;;;11.80;;
24157;SDS011;12316;50.904;4.200;2023-05-29T00:23:42;23.40;;;11.85;;
24157;SDS011;12316;50.904;4.200;2023-05-29T00:26:08;19.70;;;11.15;;
24157;SDS011;12316;50.904;4.200;2023-05-29T00:28:34;19.35;;;10.82;;
24157;SDS011;12316;50.904;4.200;2023-05-29T00:31:01;21.00;;;11.15;;
24157;SDS011;12316;50.904;4.200;2023-05-29T00:33:27;18.13;;;10.98;;
24157;SDS011;12316;50.904;4.200;2023-05-29T00:35:54;19.48;;;11.20;;
24157;SDS011;12316;50.904;4.200;2023-05-29T00:38:20;20.80;;;11.00;;
24157;SDS011;12316;50.904;4.200;2023-05-29T00:40:45;16.98;;;10.73;;
24157;SDS011;12316;50.904;4.200;2023-05-29T00:43:11;21.20;;;11.07;;
24157;SDS011;12316;50.904;4.200;2023-05-29T00:45:37;19.38;;;11.18;;
24157;SDS011;12316;50.904;4.200;2023-05-29T00:48:03;22.60;;;11.57;;
24157;SDS011;12316;50.904;4.200;2023-05-29T00:50:30;17.67;;;10.68;;
24157;SDS011;12316;50.904;4.200;2023-05-29T00:52:56;21.48;;;11.10;;
24157;SDS011;12316;50.904;4.200;2023-05-29T00:55:24;23.90;;;11.43;;
24157;SDS011;12316;50.904;4.200;2023-05-29T00:57:50;17.55;;;10.15;;
24157;SDS011;12316;50.904;4.200;2023-05-29T01:00:15;18.40;;;10.82;;
24157;SDS011;12316;50.904;4.200;2023-05-29T01:02:43;20.00;;;11.10;;
24157;SDS011;12316;50.904;4.200;2023-05-29T01:05:12;21.85;;;10.63;;
24157;SDS011;12316;50.904;4.200;2023-05-29T01:07:40;20.55;;;10.30;;
24157;SDS011;12316;50.904;4.200;2023-05-29T01:10:07;17.30;;;9.88;;
24157;SDS011;12316;50.904;4.200;2023-05-29T01:12:56;18.10;;;10.35;;
24157;SDS011;12316;50.904;4.200;2023-05-29T01:16:08;15.20;;;9.73;;
24157;SDS011;12316;50.904;4.200;2023-05-29T01:18:57;18.45;;;9.98;;
24157;SDS011;12316;50.904;4.200;2023-05-29T01:21:49;16.45;;;10.00;;
24157;SDS011;12316;50.904;4.200;2023-05-29T01:24:38;17.73;;;10.23;;
24157;SDS011;12316;50.904;4.200;2023-05-29T01:27:18;16.67;;;9.57;;
24157;SDS011;12316;50.904;4.200;2023-05-29T01:29:46;19.42;;;10.13;;
24157;SDS011;12316;50.904;4.200;2023-05-29T01:32:14;15.82;;;9.80;;
24157;SDS011;12316;50.904;4.200;2023-05-29T01:34:40;20.30;;;10.65;;
24157;SDS011;12316;50.904;4.200;2023-05-29T01:37:05;16.27;;;9.57;;
24157;SDS011;12316;50.904;4.200;2023-05-29T01:39:31;21.75;;;9.93;;
24157;SDS011;12316;50.904;4.200;2023-05-29T01:41:58;17.92;;;9.50;;
24157;SDS011;12316;50.904;4.200;2023-05-29T01:44:25;16.08;;;9.73;;
24157;SDS011;12316;50.904;4.200;2023-05-29T01:46:52;15.65;;;9.55;;
24157;SDS011;12316;50.904;4.200;2023-05-29T01:49:18;20.00;;;10.02;;
24157;SDS011;12316;50.904;4.200;2023-05-29T01:51:44;18.20;;;9.77;;
24157;SDS011;12316;50.904;4.200;2023-05-29T01:54:09;21.38;;;9.38;;
24157;SDS011;12316;50.904;4.200;2023-05-29T01:56:35;19.83;;;8.27;;
24157;SDS011;12316;50.904;4.200;2023-05-29T01:59:02;14.90;;;7.75;;
24157;SDS011;12316;50.904;4.200;2023-05-29T02:01:28;16.45;;;8.38;;
24157;SDS011;12316;50.904;4.200;2023-05-29T02:03:54;14.05;;;8.18;;
24157;SDS011;12316;50.904;4.200;2023-05-29T02:06:20;15.35;;;7.50;;
24157;SDS011;12316;50.904;4.200;2023-05-29T02:08:46;17.05;;;7.25;;
24157;SDS011;12316;50.904;4.200;2023-05-29T02:11:12;15.57;;;7.28;;
24157;SDS011;12316;50.904;4.200;2023-05-29T02:13:38;17.73;;;7.03;;
24157;SDS011;12316;50.904;4.200;2023-05-29T02:16:04;14.90;;;6.47;;
24157;SDS011;12316;50.904;4.200;2023-05-29T02:18:29;16.58;;;6.57;;
24157;SDS011;12316;50.904;4.200;2023-05-29T02:20:56;20.20;;;6.70;;
24157;SDS011;12316;50.904;4.200;2023-05-29T02:23:22;16.65;;;7.10;;
24157;SDS011;12316;50.904;4.200;2023-05-29T02:25:47;16.20;;;5.88;;
24157;SDS011;12316;50.904;4.200;2023-05-29T02:28:13;15.32;;;5.80;;
24157;SDS011;12316;50.904;4.200;2023-05-29T02:30:39;20.45;;;5.70;;
24157;SDS011;12316;50.904;4.200;2023-05-29T02:33:05;17.10;;;5.97;;
24157;SDS011;12316;50.904;4.200;2023-05-29T02:35:31;17.25;;;4.95;;
24157;SDS011;12316;50.904;4.200;2023-05-29T02:37:57;18.98;;;5.45;;
24157;SDS011;12316;50.904;4.200;2023-05-29T02:40:22;15.80;;;4.95;;
24157;SDS011;12316;50.904;4.200;2023-05-29T02:42:49;16.98;;;4.82;;
24157;SDS011;12316;50.904;4.200;2023-05-29T02:45:15;15.98;;;5.30;;
24157;SDS011;12316;50.904;4.200;2023-05-29T02:47:41;16.65;;;5.72;;
24157;SDS011;12316;50.904;4.200;2023-05-29T02:50:07;18.23;;;5.38;;
24157;SDS011;12316;50.904;4.200;2023-05-29T02:52:33;14.73;;;5.10;;
24157;SDS011;12316;50.904;4.200;2023-05-29T02:54:59;17.85;;;4.80;;
24157;SDS011;12316;50.904;4.200;2023-05-29T02:57:25;16.30;;;4.93;;
24157;SDS011;12316;50.904;4.200;2023-05-29T02:59:51;17.25;;;4.57;;
24157;SDS011;12316;50.904;4.200;2023-05-29T03:02:17;17.02;;;4.80;;
24157;SDS011;12316;50.904;4.200;2023-05-29T03:04:44;16.15;;;5.05;;
24157;SDS011;12316;50.904;4.200;2023-05-29T03:07:10;20.58;;;4.85;;
24157;SDS011;12316;50.904;4.200;2023-05-29T03:09:35;16.42;;;4.70;;
24157;SDS011;12316;50.904;4.200;2023-05-29T03:12:01;16.52;;;4.85;;
24157;SDS011;12316;50.904;4.200;2023-05-29T03:14:27;19.63;;;5.50;;
24157;SDS011;12316;50.904;4.200;2023-05-29T03:16:53;17.00;;;4.25;;
24157;SDS011;12316;50.904;4.200;2023-05-29T03:19:19;17.17;;;4.45;;
24157;SDS011;12316;50.904;4.200;2023-05-29T03:21:45;15.25;;;4.50;;
24157;SDS011;12316;50.904;4.200;2023-05-29T03:24:11;14.77;;;4.60;;
24157;SDS011;12316;50.904;4.200;2023-05-29T03:26:38;16.95;;;4.80;;
24157;SDS011;12316;50.904;4.200;2023-05-29T03:29:04;21.25;;;4.72;;
24157;SDS011;12316;50.904;4.200;2023-05-29T03:31:30;14.55;;;4.25;;
24157;SDS011;12316;50.904;4.200;2023-05-29T03:33:56;18.92;;;4.65;;
24157;SDS011;12316;50.904;4.200;2023-05-29T03:36:22;15.02;;;3.92;;
24157;SDS011;12316;50.904;4.200;2023-05-29T03:38:48;17.02;;;4.35;;
24157;SDS011;12316;50.904;4.200;2023-05-29T03:41:13;15.80;;;4.07;;
24157;SDS011;12316;50.904;4.200;2023-05-29T03:43:39;13.30;;;4.20;;
24157;SDS011;12316;50.904;4.200;2023-05-29T03:46:05;15.93;;;4.53;;
24157;SDS011;12316;50.904;4.200;2023-05-29T03:48:30;15.27;;;4.03;;
24157;SDS011;12316;50.904;4.200;2023-05-29T03:50:56;16.63;;;4.10;;
24157;SDS011;12316;50.904;4.200;2023-05-29T03:53:22;17.92;;;4.15;;
24157;SDS011;12316;50.904;4.200;2023-05-29T03:55:47;17.30;;;4.28;;
24157;SDS011;12316;50.904;4.200;2023-05-29T03:58:13;17.50;;;4.18;;
24157;SDS011;12316;50.904;4.200;2023-05-29T04:00:39;18.02;;;4.18;;
24157;SDS011;12316;50.904;4.200;2023-05-29T04:03:05;16.70;;;4.32;;
24157;SDS011;12316;50.904;4.200;2023-05-29T04:05:31;17.30;;;4.03;;
24157;SDS011;12316;50.904;4.200;2023-05-29T04:07:57;17.35;;;3.90;;
24157;SDS011;12316;50.904;4.200;2023-05-29T04:10:22;13.75;;;3.60;;
24157;SDS011;12316;50.904;4.200;2023-05-29T04:12:49;14.52;;;3.88;;
24157;SDS011;12316;50.904;4.200;2023-05-29T04:15:14;14.32;;;3.80;;
24157;SDS011;12316;50.904;4.200;2023-05-29T04:17:40;14.77;;;3.95;;
24157;SDS011;12316;50.904;4.200;2023-05-29T04:20:06;18.40;;;4.05;;
24157;SDS011;12316;50.904;4.200;2023-05-29T04:22:34;18.10;;;3.95;;
24157;SDS011;12316;50.904;4.200;2023-05-29T04:25:00;15.10;;;4.20;;
24157;SDS011;12316;50.904;4.200;2023-05-29T04:27:28;12.38;;;3.50;;
24157;SDS011;12316;50.904;4.200;2023-05-29T04:29:55;17.77;;;3.83;;
24157;SDS011;12316;50.904;4.200;2023-05-29T04:32:21;15.20;;;3.70;;
24157;SDS011;12316;50.904;4.200;2023-05-29T04:34:46;14.35;;;3.35;;
24157;SDS011;12316;50.904;4.200;2023-05-29T04:37:12;15.50;;;3.58;;
24157;SDS011;12316;50.904;4.200;2023-05-29T04:39:38;18.20;;;4.05;;
24157;SDS011;12316;50.904;4.200;2023-05-29T04:42:05;14.82;;;3.63;;
24157;SDS011;12316;50.904;4.200;2023-05-29T04:44:32;16.55;;;3.80;;
24157;SDS011;12316;50.904;4.200;2023-05-29T04:46:58;13.75;;;3.45;;
24157;SDS011;12316;50.904;4.200;2023-05-29T04:49:27;15.75;;;3.92;;
24157;SDS011;12316;50.904;4.200;2023-05-29T04:51:53;14.63;;;3.25;;
24157;SDS011;12316;50.904;4.200;2023-05-29T04:54:20;17.20;;;3.60;;
24157;SDS011;12316;50.904;4.200;2023-05-29T04:56:47;13.82;;;3.10;;
24157;SDS011;12316;50.904;4.200;2023-05-29T04:59:12;12.60;;;3.42;;
24157;SDS011;12316;50.904;4.200;2023-05-29T05:01:38;12.75;;;3.65;;
24157;SDS011;12316;50.904;4.200;2023-05-29T05:04:04;15.15;;;3.47;;
24157;SDS011;12316;50.904;4.200;2023-05-29T05:06:30;13.70;;;3.35;;
24157;SDS011;12316;50.904;4.200;2023-05-29T05:08:55;14.40;;;3.60;;
24157;SDS011;12316;50.904;4.200;2023-05-29T05:11:22;14.52;;;3.42;;
24157;SDS011;12316;50.904;4.200;2023-05-29T05:13:48;11.32;;;3.05;;
24157;SDS011;12316;50.904;4.200;2023-05-29T05:16:14;16.98;;;3.53;;
24157;SDS011;12316;50.904;4.200;2023-05-29T05:18:43;16.83;;;3.47;;
24157;SDS011;12316;50.904;4.200;2023-05-29T05:21:09;14.82;;;3.53;;
24157;SDS011;12316;50.904;4.200;2023-05-29T05:23:35;13.77;;;3.50;;
24157;SDS011;12316;50.904;4.200;2023-05-29T05:26:01;11.43;;;3.38;;
24157;SDS011;12316;50.904;4.200;2023-05-29T05:28:27;14.57;;;3.50;;
24157;SDS011;12316;50.904;4.200;2023-05-29T05:30:52;12.98;;;3.45;;
24157;SDS011;12316;50.904;4.200;2023-05-29T05:33:18;16.75;;;3.63;;
24157;SDS011;12316;50.904;4.200;2023-05-29T05:35:43;15.73;;;3.17;;
24157;SDS011;12316;50.904;4.200;2023-05-29T05:38:09;15.50;;;3.58;;
24157;SDS011;12316;50.904;4.200;2023-05-29T05:40:35;16.45;;;3.65;;
24157;SDS011;12316;50.904;4.200;2023-05-29T05:43:01;14.40;;;3.40;;
24157;SDS011;12316;50.904;4.200;2023-05-29T05:45:26;15.65;;;3.30;;
24157;SDS011;12316;50.904;4.200;2023-05-29T05:47:52;11.85;;;3.10;;
24157;SDS011;12316;50.904;4.200;2023-05-29T05:50:18;14.55;;;3.33;;
24157;SDS011;12316;50.904;4.200;2023-05-29T05:52:43;14.38;;;3.65;;
24157;SDS011;12316;50.904;4.200;2023-05-29T05:55:10;13.88;;;3.55;;
24157;SDS011;12316;50.904;4.200;2023-05-29T05:57:35;15.60;;;3.70;;
24157;SDS011;12316;50.904;4.200;2023-05-29T06:00:02;14.52;;;3.15;;
24157;SDS011;12316;50.904;4.200;2023-05-29T06:02:38;12.50;;;3.40;;
24157;SDS011;12316;50.904;4.200;2023-05-29T06:05:07;15.88;;;3.75;;
24157;SDS011;12316;50.904;4.200;2023-05-29T06:07:34;14.55;;;3.10;;
24157;SDS011;12316;50.904;4.200;2023-05-29T06:10:00;17.48;;;3.50;;
24157;SDS011;12316;50.904;4.200;2023-05-29T06:12:26;16.42;;;3.35;;
24157;SDS011;12316;50.904;4.200;2023-05-29T06:14:52;14.15;;;3.45;;
24157;SDS011;12316;50.904;4.200;2023-05-29T06:17:18;14.88;;;3.58;;
24157;SDS011;12316;50.904;4.200;2023-05-29T06:19:43;12.70;;;3.50;;
24157;SDS011;12316;50.904;4.200;2023-05-29T06:22:09;16.45;;;3.60;;
24157;SDS011;12316;50.904;4.200;2023-05-29T06:24:35;18.42;;;3.88;;
24157;SDS011;12316;50.904;4.200;2023-05-29T06:27:00;15.38;;;3.50;;
24157;SDS011;12316;50.904;4.200;2023-05-29T06:29:26;17.08;;;3.55;;
24157;SDS011;12316;50.904;4.200;2023-05-29T06:31:52;14.10;;;3.58;;
24157;SDS011;12316;50.904;4.200;2023-05-29T06:34:17;14.43;;;3.63;;
24157;SDS011;12316;50.904;4.200;2023-05-29T06:36:43;13.27;;;3.67;;
24157;SDS011;12316;50.904;4.200;2023-05-29T06:39:09;14.98;;;3.60;;
24157;SDS011;12316;50.904;4.200;2023-05-29T06:41:35;13.93;;;3.65;;
24157;SDS011;12316;50.904;4.200;2023-05-29T06:44:01;17.70;;;3.72;;
24157;SDS011;12316;50.904;4.200;2023-05-29T06:46:26;12.10;;;3.22;;
24157;SDS011;12316;50.904;4.200;2023-05-29T06:48:52;11.50;;;3.55;;
24157;SDS011;12316;50.904;4.200;2023-05-29T06:51:18;14.23;;;3.72;;
24157;SDS011;12316;50.904;4.200;2023-05-29T06:53:43;11.77;;;3.05;;
24157;SDS011;12316;50.904;4.200;2023-05-29T06:56:09;12.52;;;3.50;;
24157;SDS011;12316;50.904;4.200;2023-05-29T06:58:35;16.73;;;3.80;;
24157;SDS011;12316;50.904;4.200;2023-05-29T07:01:01;17.35;;;3.28;;
24157;SDS011;12316;50.904;4.200;2023-05-29T07:03:27;12.70;;;3.45;;
24157;SDS011;12316;50.904;4.200;2023-05-29T07:05:53;14.77;;;3.55;;
24157;SDS011;12316;50.904;4.200;2023-05-29T07:08:18;12.68;;;3.47;;
24157;SDS011;12316;50.904;4.200;2023-05-29T07:10:44;17.85;;;3.58;;
24157;SDS011;12316;50.904;4.200;2023-05-29T07:13:10;11.32;;;3.28;;
24157;SDS011;12316;50.904;4.200;2023-05-29T07:15:40;13.82;;;3.40;;
24157;SDS011;12316;50.904;4.200;2023-05-29T07:18:05;12.95;;;3.25;;
24157;SDS011;12316;50.904;4.200;2023-05-29T07:20:31;13.75;;;3.30;;
24157;SDS011;12316;50.904;4.200;2023-05-29T07:22:56;16.05;;;3.45;;
24157;SDS011;12316;50.904;4.200;2023-05-29T07:25:22;14.43;;;3.22;;
24157;SDS011;12316;50.904;4.200;2023-05-29T07:27:48;14.35;;;2.92;;
24157;SDS011;12316;50.904;4.200;2023-05-29T07:30:13;17.08;;;3.13;;
24157;SDS011;12316;50.904;4.200;2023-05-29T07:32:40;16.17;;;3.20;;
24157;SDS011;12316;50.904;4.200;2023-05-29T07:35:05;12.00;;;3.20;;
24157;SDS011;12316;50.904;4.200;2023-05-29T07:37:31;14.52;;;3.40;;
24157;SDS011;12316;50.904;4.200;2023-05-29T07:39:57;13.63;;;3.25;;
24157;SDS011;12316;50.904;4.200;2023-05-29T07:42:23;15.07;;;3.60;;
24157;SDS011;12316;50.904;4.200;2023-05-29T07:44:48;16.30;;;3.22;;
24157;SDS011;12316;50.904;4.200;2023-05-29T07:47:14;14.63;;;3.10;;
24157;SDS011;12316;50.904;4.200;2023-05-29T07:49:40;11.45;;;2.85;;
24157;SDS011;12316;50.904;4.200;2023-05-29T07:52:06;12.45;;;2.83;;
24157;SDS011;12316;50.904;4.200;2023-05-29T07:54:33;13.05;;;3.22;;
24157;SDS011;12316;50.904;4.200;2023-05-29T07:56:59;15.07;;;3.40;;
24157;SDS011;12316;50.904;4.200;2023-05-29T07:59:25;14.30;;;3.33;;
24157;SDS011;12316;50.904;4.200;2023-05-29T08:01:51;11.15;;;3.08;;
24157;SDS011;12316;50.904;4.200;2023-05-29T08:04:17;13.50;;;3.30;;
24157;SDS011;12316;50.904;4.200;2023-05-29T08:06:43;8.95;;;2.90;;
24157;SDS011;12316;50.904;4.200;2023-05-29T08:09:09;14.15;;;3.28;;
24157;SDS011;12316;50.904;4.200;2023-05-29T08:11:36;15.48;;;3.50;;
24157;SDS011;12316;50.904;4.200;2023-05-29T08:14:02;10.43;;;2.88;;
24157;SDS011;12316;50.904;4.200;2023-05-29T08:16:28;14.70;;;3.60;;
24157;SDS011;12316;50.904;4.200;2023-05-29T08:18:53;12.10;;;2.85;;
24157;SDS011;12316;50.904;4.200;2023-05-29T08:21:20;13.30;;;3.38;;
24157;SDS011;12316;50.904;4.200;2023-05-29T08:23:45;13.88;;;3.25;;
24157;SDS011;12316;50.904;4.200;2023-05-29T08:26:11;11.43;;;2.90;;
24157;SDS011;12316;50.904;4.200;2023-05-29T08:28:38;12.20;;;3.20;;
24157;SDS011;12316;50.904;4.200;2023-05-29T08:31:03;13.70;;;3.30;;
24157;SDS011;12316;50.904;4.200;2023-05-29T08:33:30;12.48;;;3.00;;
24157;SDS011;12316;50.904;4.200;2023-05-29T08:35:57;11.10;;;3.10;;
24157;SDS011;12316;50.904;4.200;2023-05-29T08:38:23;13.02;;;3.42;;
24157;SDS011;12316;50.904;4.200;2023-05-29T08:40:50;14.15;;;3.33;;
24157;SDS011;12316;50.904;4.200;2023-05-29T08:43:22;12.88;;;3.28;;
24157;SDS011;12316;50.904;4.200;2023-05-29T08:45:55;11.00;;;3.13;;
24157;SDS011;12316;50.904;4.200;2023-05-29T08:48:24;14.55;;;3.53;;
24157;SDS011;12316;50.904;4.200;2023-05-29T08:50:53;15.52;;;3.78;;
24157;SDS011;12316;50.904;4.200;2023-05-29T08:53:21;12.32;;;3.10;;
24157;SDS011;12316;50.904;4.200;2023-05-29T08:55:47;17.67;;;3.35;;
24157;SDS011;12316;50.904;4.200;2023-05-29T08:58:16;16.25;;;3.42;;
24157;SDS011;12316;50.904;4.200;2023-05-29T09:00:43;14.32;;;3.42;;
24157;SDS011;12316;50.904;4.200;2023-05-29T09:03:11;12.00;;;3.20;;
24157;SDS011;12316;50.904;4.200;2023-05-29T09:05:38;16.23;;;3.20;;
24157;SDS011;12316;50.904;4.200;2023-05-29T09:08:09;13.88;;;3.15;;
24157;SDS011;12316;50.904;4.200;2023-05-29T09:10:43;19.00;;;3.58;;
24157;SDS011;12316;50.904;4.200;2023-05-29T09:13:10;12.25;;;3.25;;
24157;SDS011;12316;50.904;4.200;2023-05-29T09:15:36;15.73;;;3.67;;
24157;SDS011;12316;50.904;4.200;2023-05-29T09:18:05;12.23;;;3.10;;
24157;SDS011;12316;50.904;4.200;2023-05-29T09:20:30;16.88;;;3.63;;
24157;SDS011;12316;50.904;4.200;2023-05-29T09:22:57;14.88;;;3.28;;
24157;SDS011;12316;50.904;4.200;2023-05-29T09:25:31;15.85;;;3.35;;
24157;SDS011;12316;50.904;4.200;2023-05-29T09:33:09;12.00;;;3.05;;
24157;SDS011;12316;50.904;4.200;2023-05-29T09:35:45;15.00;;;2.95;;
24157;SDS011;12316;50.904;4.200;2023-05-29T09:38:13;11.73;;;3.08;;
24157;SDS011;12316;50.904;4.200;2023-05-29T09:40:44;11.88;;;3.10;;
24157;SDS011;12316;50.904;4.200;2023-05-29T09:43:15;11.80;;;3.10;;
24157;SDS011;12316;50.904;4.200;2023-05-29T09:45:48;11.98;;;2.80;;
24157;SDS011;12316;50.904;4.200;2023-05-29T09:48:18;16.02;;;3.10;;
24157;SDS011;12316;50.904;4.200;2023-05-29T09:50:47;11.27;;;3.00;;
24157;SDS011;12316;50.904;4.200;2023-05-29T09:53:16;13.82;;;2.83;;
24157;SDS011;12316;50.904;4.200;2023-05-29T09:55:44;9.63;;;2.72;;
24157;SDS011;12316;50.904;4.200;2023-05-29T09:58:11;11.20;;;3.00;;
24157;SDS011;12316;50.904;4.200;2023-05-29T10:00:44;15.45;;;3.50;;
24157;SDS011;12316;50.904;4.200;2023-05-29T10:03:10;15.90;;;3.35;;
24157;SDS011;12316;50.904;4.200;2023-05-29T10:05:42;13.38;;;3.22;;
24157;SDS011;12316;50.904;4.200;2023-05-29T10:08:10;11.45;;;2.88;;
24157;SDS011;12316;50.904;4.200;2023-05-29T10:10:39;13.75;;;3.00;;
24157;SDS011;12316;50.904;4.200;2023-05-29T10:13:12;11.07;;;3.20;;
24157;SDS011;12316;50.904;4.200;2023-05-29T10:15:39;10.27;;;2.92;;
24157;SDS011;12316;50.904;4.200;2023-05-29T10:18:51;8.77;;;2.83;;
24157;SDS011;12316;50.904;4.200;2023-05-29T10:20:59;13.40;;;3.17;;
24157;SDS011;12316;50.904;4.200;2023-05-29T10:23:26;13.55;;;3.40;;
24157;SDS011;12316;50.904;4.200;2023-05-29T10:25:57;8.27;;;2.80;;
24157;SDS011;12316;50.904;4.200;2023-05-29T10:28:29;8.57;;;2.70;;
24157;SDS011;12316;50.904;4.200;2023-05-29T10:31:09;13.18;;;2.88;;
24157;SDS011;12316;50.904;4.200;2023-05-29T10:36:44;8.35;;;2.45;;
24157;SDS011;12316;50.904;4.200;2023-05-29T10:39:14;12.25;;;3.13;;
24157;SDS011;12316;50.904;4.200;2023-05-29T10:41:40;10.98;;;2.72;;
24157;SDS011;12316;50.904;4.200;2023-05-29T10:44:51;12.90;;;3.05;;
24157;SDS011;12316;50.904;4.200;2023-05-29T10:49:22;14.23;;;3.00;;
24157;SDS011;12316;50.904;4.200;2023-05-29T10:51:48;9.90;;;2.88;;
24157;SDS011;12316;50.904;4.200;2023-05-29T10:54:14;12.43;;;3.00;;
24157;SDS011;12316;50.904;4.200;2023-05-29T10:56:44;12.05;;;2.63;;
24157;SDS011;12316;50.904;4.200;2023-05-29T10:59:17;11.40;;;3.03;;
24157;SDS011;12316;50.904;4.200;2023-05-29T11:01:43;14.13;;;3.13;;
24157;SDS011;12316;50.904;4.200;2023-05-29T11:06:45;11.52;;;3.13;;
24157;SDS011;12316;50.904;4.200;2023-05-29T11:12:14;12.70;;;3.10;;
24157;SDS011;12316;50.904;4.200;2023-05-29T11:15:05;10.20;;;3.03;;
24157;SDS011;12316;50.904;4.200;2023-05-29T11:20:08;13.43;;;3.33;;
24157;SDS011;12316;50.904;4.200;2023-05-29T11:22:46;9.27;;;2.88;;
24157;SDS011;12316;50.904;4.200;2023-05-29T11:25:24;10.80;;;2.88;;
24157;SDS011;12316;50.904;4.200;2023-05-29T11:27:50;12.73;;;2.80;;
24157;SDS011;12316;50.904;4.200;2023-05-29T11:30:19;10.00;;;2.85;;
24157;SDS011;12316;50.904;4.200;2023-05-29T11:32:45;12.15;;;2.90;;
24157;SDS011;12316;50.904;4.200;2023-05-29T11:35:15;10.75;;;2.80;;
24157;SDS011;12316;50.904;4.200;2023-05-29T11:37:44;10.38;;;2.97;;
24157;SDS011;12316;50.904;4.200;2023-05-29T11:40:15;12.70;;;2.92;;
24157;SDS011;12316;50.904;4.200;2023-05-29T11:42:45;14.65;;;3.50;;
24157;SDS011;12316;50.904;4.200;2023-05-29T11:45:17;8.75;;;2.97;;
24157;SDS011;12316;50.904;4.200;2023-05-29T11:47:56;10.98;;;3.15;;
24157;SDS011;12316;50.904;4.200;2023-05-29T11:50:27;12.07;;;2.78;;
24157;SDS011;12316;50.904;4.200;2023-05-29T11:52:54;10.32;;;3.10;;
24157;SDS011;12316;50.904;4.200;2023-05-29T11:55:21;8.98;;;2.67;;
24157;SDS011;12316;50.904;4.200;2023-05-29T11:57:52;7.93;;;2.78;;
24157;SDS011;12316;50.904;4.200;2023-05-29T12:00:25;10.05;;;3.03;;
24157;SDS011;12316;50.904;4.200;2023-05-29T12:02:57;10.70;;;3.00;;
24157;SDS011;12316;50.904;4.200;2023-05-29T12:05:28;15.20;;;3.03;;
24157;SDS011;12316;50.904;4.200;2023-05-29T12:07:54;10.85;;;2.70;;
24157;SDS011;12316;50.904;4.200;2023-05-29T12:10:25;10.23;;;2.88;;
24157;SDS011;12316;50.904;4.200;2023-05-29T12:12:57;11.98;;;3.03;;
24157;SDS011;12316;50.904;4.200;2023-05-29T12:15:24;13.88;;;3.10;;
24157;SDS011;12316;50.904;4.200;2023-05-29T12:17:51;11.00;;;3.00;;
24157;SDS011;12316;50.904;4.200;2023-05-29T12:20:18;8.55;;;2.75;;
24157;SDS011;12316;50.904;4.200;2023-05-29T12:22:45;8.82;;;2.97;;
24157;SDS011;12316;50.904;4.200;2023-05-29T12:25:15;9.85;;;2.70;;
24157;SDS011;12316;50.904;4.200;2023-05-29T12:27:43;8.93;;;2.90;;
24157;SDS011;12316;50.904;4.200;2023-05-29T12:30:14;12.23;;;3.25;;
24157;SDS011;12316;50.904;4.200;2023-05-29T12:32:44;10.75;;;2.95;;
24157;SDS011;12316;50.904;4.200;2023-05-29T12:35:12;7.60;;;2.78;;
24157;SDS011;12316;50.904;4.200;2023-05-29T12:37:45;10.07;;;2.95;;
24157;SDS011;12316;50.904;4.200;2023-05-29T12:40:22;11.70;;;3.00;;
24157;SDS011;12316;50.904;4.200;2023-05-29T12:42:53;9.23;;;2.85;;
24157;SDS011;12316;50.904;4.200;2023-05-29T12:45:32;10.77;;;2.88;;
24157;SDS011;12316;50.904;4.200;2023-05-29T12:47:59;11.95;;;2.90;;
24157;SDS011;12316;50.904;4.200;2023-05-29T12:50:36;9.30;;;3.13;;
24157;SDS011;12316;50.904;4.200;2023-05-29T12:53:07;9.00;;;2.95;;
24157;SDS011;12316;50.904;4.200;2023-05-29T12:55:37;9.38;;;2.88;;
24157;SDS011;12316;50.904;4.200;2023-05-29T12:58:07;8.98;;;3.17;;
24157;SDS011;12316;50.904;4.200;2023-05-29T13:00:34;8.75;;;2.92;;
24157;SDS011;12316;50.904;4.200;2023-05-29T13:03:01;13.13;;;3.15;;
24157;SDS011;12316;50.904;4.200;2023-05-29T13:05:27;7.60;;;3.00;;
24157;SDS011;12316;50.904;4.200;2023-05-29T13:07:53;7.45;;;2.83;;
24157;SDS011;12316;50.904;4.200;2023-05-29T13:10:19;9.32;;;3.25;;
24157;SDS011;12316;50.904;4.200;2023-05-29T13:12:46;10.05;;;3.17;;
24157;SDS011;12316;50.904;4.200;2023-05-29T13:15:13;11.75;;;3.33;;
24157;SDS011;12316;50.904;4.200;2023-05-29T13:17:39;12.10;;;3.28;;
24157;SDS011;12316;50.904;4.200;2023-05-29T13:20:09;10.68;;;3.17;;
24157;SDS011;12316;50.904;4.200;2023-05-29T13:22:40;11.75;;;3.28;;
24157;SDS011;12316;50.904;4.200;2023-05-29T13:25:08;10.75;;;3.40;;
24157;SDS011;12316;50.904;4.200;2023-05-29T13:27:34;9.32;;;2.90;;
24157;SDS011;12316;50.904;4.200;2023-05-29T13:30:05;11.50;;;4.82;;
24157;SDS011;12316;50.904;4.200;2023-05-29T13:32:32;8.65;;;2.92;;
24157;SDS011;12316;50.904;4.200;2023-05-29T13:34:58;10.73;;;3.35;;
24157;SDS011;12316;50.904;4.200;2023-05-29T13:37:23;8.13;;;2.83;;
24157;SDS011;12316;50.904;4.200;2023-05-29T13:39:49;9.52;;;2.95;;
24157;SDS011;12316;50.904;4.200;2023-05-29T13:42:15;8.43;;;3.20;;
24157;SDS011;12316;50.904;4.200;2023-05-29T13:44:42;9.73;;;3.30;;
24157;SDS011;12316;50.904;4.200;2023-05-29T13:47:07;14.30;;;3.30;;
24157;SDS011;12316;50.904;4.200;2023-05-29T13:49:33;11.27;;;3.45;;
24157;SDS011;12316;50.904;4.200;2023-05-29T13:52:00;8.32;;;3.00;;
24157;SDS011;12316;50.904;4.200;2023-05-29T13:54:26;9.77;;;3.22;;
24157;SDS011;12316;50.904;4.200;2023-05-29T13:56:54;9.45;;;3.40;;
24157;SDS011;12316;50.904;4.200;2023-05-29T13:59:21;13.45;;;3.85;;
24157;SDS011;12316;50.904;4.200;2023-05-29T14:01:47;9.57;;;3.20;;
24157;SDS011;12316;50.904;4.200;2023-05-29T14:04:13;12.50;;;4.50;;
24157;SDS011;12316;50.904;4.200;2023-05-29T14:06:38;8.30;;;3.08;;
24157;SDS011;12316;50.904;4.200;2023-05-29T14:09:05;11.82;;;4.70;;
24157;SDS011;12316;50.904;4.200;2023-05-29T14:11:34;11.63;;;4.15;;
24157;SDS011;12316;50.904;4.200;2023-05-29T14:14:02;8.70;;;3.17;;
24157;SDS011;12316;50.904;4.200;2023-05-29T14:16:31;8.18;;;3.45;;
24157;SDS011;12316;50.904;4.200;2023-05-29T14:18:57;10.80;;;2.90;;
24157;SDS011;12316;50.904;4.200;2023-05-29T14:21:23;8.00;;;2.85;;
24157;SDS011;12316;50.904;4.200;2023-05-29T14:23:49;8.32;;;3.00;;
24157;SDS011;12316;50.904;4.200;2023-05-29T14:26:14;8.82;;;3.03;;
24157;SDS011;12316;50.904;4.200;2023-05-29T14:28:40;15.63;;;3.22;;
24157;SDS011;12316;50.904;4.200;2023-05-29T14:31:06;9.30;;;3.08;;
24157;SDS011;12316;50.904;4.200;2023-05-29T14:33:32;11.20;;;3.10;;
24157;SDS011;12316;50.904;4.200;2023-05-29T14:35:58;11.70;;;3.40;;
24157;SDS011;12316;50.904;4.200;2023-05-29T14:38:24;13.15;;;3.72;;
24157;SDS011;12316;50.904;4.200;2023-05-29T14:40:50;13.77;;;3.00;;
24157;SDS011;12316;50.904;4.200;2023-05-29T14:43:16;10.05;;;3.45;;
24157;SDS011;12316;50.904;4.200;2023-05-29T14:45:42;10.93;;;3.47;;
24157;SDS011;12316;50.904;4.200;2023-05-29T14:48:08;12.48;;;3.45;;
24157;SDS011;12316;50.904;4.200;2023-05-29T14:50:35;12.55;;;3.20;;
24157;SDS011;12316;50.904;4.200;2023-05-29T14:53:00;10.30;;;3.20;;
24157;SDS011;12316;50.904;4.200;2023-05-29T14:55:26;9.00;;;4.03;;
24157;SDS011;12316;50.904;4.200;2023-05-29T14:57:52;10.40;;;3.63;;